Time;durP1;ratioP1;P1;durP2;ratioP2;P2;SDS_P1;SDS_P2;PMS_P1;PMS_P2;Temp;Humidity;BMP_temperature;BMP_pressure;BME280_temperature;BME280_humidity;BME280_pressure;Samples;Min_cycle;Max_cycle;Signal;HPM_P1;HPM_P2
2021/11/19 00:01:58;;;;;;;25.88;21.92;;;12.90;99.90;;;;;;5073394;28;20444;-67
2021/11/19 00:04:27;;;;;;;31.67;24.33;;;12.90;99.90;;;;;;5073365;28;20800;-67
2021/11/19 00:06:56;;;;;;;34.53;25.73;;;12.90;99.90;;;;;;5073210;28;20716;-67
2021/11/19 00:09:24;;;;;;;43.72;33.83;;;12.80;99.90;;;;;;5073578;28;20224;-66
2021/11/19 00:11:52;;;;;;;44.25;35.70;;;12.80;99.90;;;;;;5073101;28;20285;-66
2021/11/19 00:14:21;;;;;;;43.75;34.55;;;12.80;99.90;;;;;;5073689;28;20272;-67
2021/11/19 00:16:54;;;;;;;34.35;30.40;;;12.90;99.90;;;;;;5073567;28;20228;-66
2021/11/19 00:19:22;;;;;;;56.50;41.55;;;12.90;99.90;;;;;;5073414;28;20696;-66
2021/11/19 00:21:51;;;;;;;35.47;28.35;;;12.90;99.90;;;;;;5073014;28;20283;-66
2021/11/19 00:24:19;;;;;;;376.23;283.60;;;12.90;99.90;;;;;;5073123;28;20220;-66
2021/11/19 00:26:46;;;;;;;68.35;54.38;;;12.90;99.90;;;;;;5066555;28;20670;-67
2021/11/19 00:29:15;;;;;;;33.55;27.45;;;13.00;99.90;;;;;;5072886;28;20219;-66
2021/11/19 00:31:43;;;;;;;41.78;32.88;;;13.00;99.90;;;;;;5067510;28;20228;-67
2021/11/19 00:34:11;;;;;;;49.25;38.83;;;13.10;99.90;;;;;;5073007;28;20224;-67
2021/11/19 00:36:38;;;;;;;36.20;27.63;;;13.10;99.90;;;;;;5073098;28;20307;-67
2021/11/19 00:39:10;;;;;;;48.63;36.15;;;13.10;99.90;;;;;;5072847;28;20270;-67
2021/11/19 00:41:38;;;;;;;28.30;24.52;;;13.10;99.90;;;;;;5072448;28;20243;-66
2021/11/19 00:44:07;;;;;;;39.47;31.63;;;13.10;99.90;;;;;;5072667;28;20228;-66
2021/11/19 00:46:34;;;;;;;44.80;33.83;;;13.00;99.90;;;;;;5073159;28;20604;-66
2021/11/19 00:49:01;;;;;;;35.65;26.50;;;13.00;99.90;;;;;;5072093;28;20239;-66
2021/11/19 00:51:30;;;;;;;30.92;24.92;;;13.00;99.90;;;;;;5072754;28;20235;-67
2021/11/19 00:53:59;;;;;;;41.58;34.22;;;13.00;99.90;;;;;;5072886;28;20295;-67
2021/11/19 00:56:30;;;;;;;38.45;27.98;;;12.90;99.90;;;;;;5072676;28;20281;-67
2021/11/19 00:58:58;;;;;;;25.08;22.20;;;12.90;99.90;;;;;;5072356;28;20231;-66
2021/11/19 01:01:27;;;;;;;29.02;21.95;;;12.90;99.90;;;;;;5072764;28;20216;-66
2021/11/19 01:03:55;;;;;;;30.33;24.63;;;12.90;99.90;;;;;;5072313;28;20299;-66
2021/11/19 01:06:22;;;;;;;16.67;14.88;;;12.90;99.90;;;;;;5072468;28;20227;-64
2021/11/19 01:08:49;;;;;;;15.50;12.27;;;12.90;99.90;;;;;;5072073;28;20227;-64
2021/11/19 01:11:20;;;;;;;15.07;13.43;;;12.90;99.90;;;;;;5071853;28;20339;-64
2021/11/19 01:13:51;;;;;;;17.40;13.30;;;12.90;99.90;;;;;;5071040;28;20228;-63
2021/11/19 01:16:21;;;;;;;17.17;12.88;;;12.80;99.90;;;;;;5082132;28;20227;-63
2021/11/19 01:18:51;;;;;;;16.17;14.10;;;12.80;99.90;;;;;;5072305;28;20227;-63
2021/11/19 01:21:22;;;;;;;17.10;12.27;;;12.80;99.90;;;;;;5072103;28;20208;-64
2021/11/19 01:23:51;;;;;;;18.70;13.50;;;12.80;99.90;;;;;;5070131;28;20231;-64
2021/11/19 01:26:21;;;;;;;16.67;14.75;;;12.70;99.90;;;;;;5072021;28;20570;-64
2021/11/19 01:28:53;;;;;;;14.98;13.40;;;12.70;99.90;;;;;;5072183;28;20696;-64
2021/11/19 01:31:23;;;;;;;20.40;14.25;;;12.60;99.90;;;;;;5071884;28;20654;-64
2021/11/19 01:33:50;;;;;;;16.65;14.18;;;12.60;99.90;;;;;;5072375;28;20224;-64
2021/11/19 01:36:19;;;;;;;17.55;13.80;;;12.60;99.90;;;;;;5071725;28;20230;-64
2021/11/19 01:38:47;;;;;;;15.30;13.73;;;12.60;99.90;;;;;;5066326;28;20240;-64
2021/11/19 01:41:17;;;;;;;17.75;13.02;;;12.70;99.90;;;;;;5071850;28;20219;-64
2021/11/19 01:43:44;;;;;;;15.02;13.43;;;12.60;99.90;;;;;;5072113;28;20698;-64
2021/11/19 01:46:17;;;;;;;15.27;12.30;;;12.60;99.90;;;;;;5071692;28;20224;-63
2021/11/19 01:48:46;;;;;;;16.83;13.20;;;12.70;99.90;;;;;;5072520;28;20224;-64
2021/11/19 01:51:21;;;;;;;16.17;13.55;;;12.60;99.90;;;;;;5071416;28;20236;-64
2021/11/19 01:53:53;;;;;;;16.45;13.73;;;12.60;99.90;;;;;;5072214;28;20701;-62
2021/11/19 01:56:24;;;;;;;15.45;13.85;;;12.60;99.90;;;;;;5071456;28;20228;-63
2021/11/19 01:58:54;;;;;;;14.60;12.95;;;12.60;99.90;;;;;;5072172;28;20227;-63
2021/11/19 02:01:25;;;;;;;22.45;14.80;;;12.60;99.90;;;;;;5071705;28;20267;-63
2021/11/19 02:03:55;;;;;;;19.45;13.88;;;12.60;99.90;;;;;;5072075;28;20236;-63
2021/11/19 02:06:26;;;;;;;15.43;13.93;;;12.60;99.90;;;;;;5071754;28;20236;-63
2021/11/19 02:08:53;;;;;;;16.15;14.52;;;12.60;99.90;;;;;;5072008;28;20235;-63
2021/11/19 02:11:32;;;;;;;15.13;13.63;;;12.70;99.90;;;;;;5069546;28;20224;-64
2021/11/19 02:14:08;;;;;;;16.38;14.25;;;12.70;99.90;;;;;;5068678;28;20666;-64
2021/11/19 02:16:40;;;;;;;16.25;14.55;;;12.70;99.90;;;;;;5071507;28;20223;-64
2021/11/19 02:19:10;;;;;;;13.57;12.27;;;12.80;99.90;;;;;;5059002;28;20666;-64
2021/11/19 02:21:40;;;;;;;13.98;12.55;;;12.80;99.90;;;;;;5071506;28;20229;-64
2021/11/19 02:24:12;;;;;;;14.45;13.05;;;12.80;99.90;;;;;;5071503;28;20269;-64
2021/11/19 02:26:44;;;;;;;14.40;12.90;;;12.80;99.90;;;;;;5071756;28;20220;-64
2021/11/19 02:29:11;;;;;;;14.27;12.93;;;12.80;99.90;;;;;;5071771;28;20228;-64
2021/11/19 02:31:50;;;;;;;14.45;13.00;;;12.90;99.90;;;;;;5072019;28;20578;-64
2021/11/19 02:34:18;;;;;;;14.25;12.18;;;13.00;99.90;;;;;;5031832;28;20218;-64
2021/11/19 02:36:48;;;;;;;15.05;13.23;;;13.00;99.90;;;;;;5031936;28;20233;-64
2021/11/19 02:39:18;;;;;;;15.10;13.43;;;13.00;99.90;;;;;;5030739;28;20233;-63
2021/11/19 02:41:50;;;;;;;14.73;12.30;;;13.00;99.90;;;;;;5021032;28;20233;-64
2021/11/19 02:44:21;;;;;;;14.68;12.20;;;13.10;99.90;;;;;;5031217;28;20232;-63
2021/11/19 02:46:52;;;;;;;14.30;12.82;;;13.10;99.90;;;;;;5032032;28;20229;-64
2021/11/19 02:49:19;;;;;;;14.75;12.25;;;13.10;99.90;;;;;;5030733;28;20572;-62
2021/11/19 02:51:47;;;;;;;17.95;15.60;;;13.10;99.90;;;;;;5031751;28;20225;-63
2021/11/19 02:54:17;;;;;;;13.50;12.15;;;13.10;99.90;;;;;;5031666;28;20316;-63
2021/11/19 02:56:45;;;;;;;17.52;12.57;;;13.20;99.90;;;;;;5031924;28;20233;-63
2021/11/19 02:59:12;;;;;;;12.02;10.95;;;13.30;99.90;;;;;;5031469;28;20240;-63
2021/11/19 03:01:42;;;;;;;12.13;10.93;;;13.30;99.90;;;;;;5031941;28;20233;-63
2021/11/19 03:04:13;;;;;;;12.73;11.30;;;13.30;99.90;;;;;;5034146;28;20245;-63
2021/11/19 03:06:44;;;;;;;14.25;12.38;;;13.30;99.90;;;;;;5035373;28;20263;-63
2021/11/19 03:09:13;;;;;;;13.02;11.73;;;13.30;99.90;;;;;;5035001;28;20253;-63
2021/11/19 03:11:41;;;;;;;16.25;11.77;;;13.30;99.90;;;;;;5035113;28;20249;-63
2021/11/19 03:14:09;;;;;;;13.70;12.40;;;13.30;99.90;;;;;;5034781;28;20228;-63
2021/11/19 03:16:37;;;;;;;11.48;10.30;;;13.30;99.90;;;;;;5035455;28;20225;-63
2021/11/19 03:19:07;;;;;;;10.60;9.60;;;13.40;99.90;;;;;;5034699;28;20244;-63
2021/11/19 03:21:37;;;;;;;12.43;10.48;;;13.40;99.90;;;;;;5035137;28;20541;-64
2021/11/19 03:24:05;;;;;;;12.73;10.35;;;13.40;99.90;;;;;;5034740;28;20248;-63
2021/11/19 03:26:33;;;;;;;11.17;9.93;;;13.40;99.90;;;;;;5035094;28;20222;-64
2021/11/19 03:29:01;;;;;;;11.48;9.77;;;13.40;99.90;;;;;;5035111;28;20487;-63
2021/11/19 03:31:28;;;;;;;15.98;10.77;;;13.40;99.90;;;;;;5034650;28;20228;-63
2021/11/19 03:33:55;;;;;;;12.68;11.15;;;13.40;99.90;;;;;;5071780;28;20236;-63
2021/11/19 03:36:24;;;;;;;11.88;10.40;;;13.40;99.90;;;;;;5074267;28;20231;-64
2021/11/19 03:38:54;;;;;;;11.10;10.00;;;13.30;99.90;;;;;;5074867;28;20235;-63
2021/11/19 03:41:24;;;;;;;13.88;10.30;;;13.30;99.90;;;;;;5074278;28;20231;-64
2021/11/19 03:43:56;;;;;;;11.20;9.73;;;13.40;99.90;;;;;;5074514;28;20224;-63
2021/11/19 03:46:26;;;;;;;12.02;10.23;;;13.30;99.90;;;;;;5074410;28;20827;-63
2021/11/19 03:48:53;;;;;;;12.30;11.10;;;13.40;99.90;;;;;;5074739;28;20239;-63
2021/11/19 03:51:25;;;;;;;12.37;9.70;;;13.40;99.90;;;;;;5074014;28;20582;-64
2021/11/19 03:53:53;;;;;;;11.32;10.00;;;13.40;99.90;;;;;;5074471;28;20463;-63
2021/11/19 03:56:21;;;;;;;12.10;11.05;;;13.40;99.90;;;;;;5074279;28;20322;-63
2021/11/19 03:58:49;;;;;;;11.15;10.05;;;13.50;99.90;;;;;;5074384;28;20224;-62
2021/11/19 04:01:20;;;;;;;10.73;9.63;;;13.40;99.90;;;;;;5073856;28;20251;-63
2021/11/19 04:03:48;;;;;;;11.70;10.60;;;13.40;99.90;;;;;;5074538;28;20220;-63
2021/11/19 04:06:20;;;;;;;12.77;11.37;;;13.40;99.90;;;;;;5073689;28;20827;-63
2021/11/19 04:08:46;;;;;;;14.43;9.75;;;13.30;99.90;;;;;;5074083;28;20478;-63
2021/11/19 04:11:15;;;;;;;11.15;9.95;;;13.40;99.90;;;;;;5073847;28;20236;-63
2021/11/19 04:13:43;;;;;;;12.98;11.02;;;13.40;99.90;;;;;;5073911;28;20228;-63
2021/11/19 04:16:14;;;;;;;13.80;12.30;;;13.40;99.90;;;;;;5073666;28;20231;-63
2021/11/19 04:18:41;;;;;;;13.25;11.85;;;13.40;99.90;;;;;;5074086;28;20223;-63
2021/11/19 04:21:09;;;;;;;12.93;11.07;;;13.50;99.90;;;;;;5073484;28;20582;-63
2021/11/19 04:23:37;;;;;;;15.50;11.13;;;13.50;99.90;;;;;;5073895;28;20235;-63
2021/11/19 04:26:05;;;;;;;13.90;12.43;;;13.40;99.90;;;;;;5073908;28;20462;-63
2021/11/19 04:28:34;;;;;;;16.15;13.13;;;13.40;99.90;;;;;;5073330;28;20216;-63
2021/11/19 04:31:03;;;;;;;13.15;11.85;;;13.30;99.90;;;;;;5073592;28;20228;-63
2021/11/19 04:33:31;;;;;;;16.73;13.55;;;13.40;99.90;;;;;;5073161;28;20235;-63
2021/11/19 04:35:59;;;;;;;12.30;11.10;;;13.40;99.90;;;;;;5073640;28;20228;-63
2021/11/19 04:38:26;;;;;;;17.30;13.88;;;13.40;99.90;;;;;;5073130;28;20224;-64
2021/11/19 04:40:55;;;;;;;15.07;13.57;;;13.40;99.90;;;;;;5073603;28;20232;-64
2021/11/19 04:43:23;;;;;;;15.77;14.18;;;13.40;99.90;;;;;;5072899;28;20238;-64
2021/11/19 04:45:52;;;;;;;19.17;15.77;;;13.50;99.90;;;;;;5073506;28;20228;-63
2021/11/19 04:48:20;;;;;;;22.77;18.73;;;13.50;99.90;;;;;;5073157;28;20482;-63
2021/11/19 04:50:50;;;;;;;18.13;16.33;;;13.50;99.90;;;;;;5073388;28;20231;-63
2021/11/19 04:53:20;;;;;;;23.77;16.13;;;13.60;99.90;;;;;;5072953;28;20551;-63
2021/11/19 04:55:47;;;;;;;21.33;16.60;;;13.50;99.90;;;;;;5073381;28;20473;-64
2021/11/19 04:58:15;;;;;;;19.08;17.08;;;13.60;99.90;;;;;;5072990;28;20477;-64
2021/11/19 05:00:45;;;;;;;18.20;15.10;;;13.60;99.90;;;;;;5073157;28;20644;-63
2021/11/19 05:03:15;;;;;;;19.02;15.23;;;13.60;99.90;;;;;;5073000;28;20477;-63
2021/11/19 05:05:43;;;;;;;20.83;15.90;;;13.50;99.90;;;;;;5073028;28;20307;-63
2021/11/19 05:08:10;;;;;;;16.80;14.40;;;13.50;99.90;;;;;;5072990;28;20251;-63
2021/11/19 05:10:40;;;;;;;18.13;15.52;;;13.50;99.90;;;;;;5072744;28;21012;-62
2021/11/19 05:13:08;;;;;;;18.30;16.40;;;13.50;99.90;;;;;;5073116;28;20697;-62
2021/11/19 05:15:38;;;;;;;17.10;13.80;;;13.50;99.90;;;;;;5072598;28;20224;-62
2021/11/19 05:18:04;;;;;;;15.97;14.27;;;13.50;99.90;;;;;;5072823;28;20231;-62
2021/11/19 05:20:33;;;;;;;16.60;15.00;;;13.50;99.90;;;;;;5072255;28;20480;-63
2021/11/19 05:23:00;;;;;;;18.55;16.20;;;13.50;99.90;;;;;;5072866;28;20956;-63
2021/11/19 05:25:30;;;;;;;21.77;15.68;;;13.50;99.90;;;;;;5071676;28;20235;-63
2021/11/19 05:27:58;;;;;;;16.13;14.38;;;13.50;99.90;;;;;;5073014;28;20228;-63
2021/11/19 05:30:26;;;;;;;19.95;16.77;;;13.50;99.90;;;;;;5072343;28;20236;-63
2021/11/19 05:32:53;;;;;;;20.85;14.82;;;13.50;99.90;;;;;;5072491;28;20239;-63
2021/11/19 05:35:21;;;;;;;21.63;16.05;;;13.60;99.90;;;;;;5072351;28;20220;-63
2021/11/19 05:37:50;;;;;;;19.67;16.77;;;13.60;99.90;;;;;;5072772;28;20682;-63
2021/11/19 05:40:20;;;;;;;22.17;17.40;;;13.60;99.90;;;;;;5072032;28;20477;-62
2021/11/19 05:42:48;;;;;;;22.60;17.13;;;13.60;99.90;;;;;;5072754;28;20235;-63
2021/11/19 05:45:16;;;;;;;18.95;16.92;;;13.60;99.90;;;;;;5072051;28;20228;-62
2021/11/19 05:47:43;;;;;;;19.23;16.63;;;13.60;99.90;;;;;;5072714;28;20690;-63
2021/11/19 05:50:12;;;;;;;17.45;14.57;;;13.60;99.90;;;;;;5072318;28;20998;-63
2021/11/19 05:52:40;;;;;;;17.63;15.88;;;13.70;99.90;;;;;;5072231;28;20235;-63
2021/11/19 05:55:13;;;;;;;16.80;14.93;;;13.70;99.90;;;;;;5072381;28;20223;-63
2021/11/19 05:57:40;;;;;;;17.80;14.52;;;13.70;99.90;;;;;;5072404;28;20473;-63
2021/11/19 06:00:11;;;;;;;17.25;15.52;;;13.70;99.90;;;;;;5072323;28;20224;-63
2021/11/19 06:02:38;;;;;;;16.33;14.48;;;13.70;99.90;;;;;;5072040;28;20228;-63
2021/11/19 06:05:07;;;;;;;16.20;13.63;;;13.70;99.90;;;;;;5072344;28;20228;-63
2021/11/19 06:07:34;;;;;;;20.25;13.00;;;13.70;99.90;;;;;;5071902;28;20224;-63
2021/11/19 06:10:01;;;;;;;15.93;12.90;;;13.70;99.90;;;;;;5072216;28;20235;-63
2021/11/19 06:12:34;;;;;;;15.32;13.20;;;13.70;99.90;;;;;;5071961;28;20216;-63
2021/11/19 06:15:04;;;;;;;12.77;11.43;;;13.70;99.90;;;;;;5072366;28;20574;-63
2021/11/19 06:17:34;;;;;;;12.00;10.60;;;13.70;99.90;;;;;;5071901;28;20224;-63
2021/11/19 06:20:06;;;;;;;13.32;12.00;;;13.70;99.90;;;;;;5072169;28;20485;-63
2021/11/19 06:22:36;;;;;;;11.00;10.00;;;13.80;99.90;;;;;;5071971;28;20570;-63
2021/11/19 06:25:06;;;;;;;13.43;12.13;;;13.80;99.90;;;;;;5072087;28;20466;-63
2021/11/19 06:27:37;;;;;;;12.80;11.52;;;13.80;99.90;;;;;;5071828;28;20231;-64
2021/11/19 06:30:08;;;;;;;11.67;10.47;;;13.80;99.90;;;;;;5072238;28;20573;-63
2021/11/19 06:32:36;;;;;;;15.77;12.00;;;13.80;99.90;;;;;;5071502;28;20987;-63
2021/11/19 06:35:04;;;;;;;15.00;13.50;;;13.80;99.90;;;;;;5072068;28;20470;-63
2021/11/19 06:37:31;;;;;;;12.30;11.07;;;13.80;99.90;;;;;;5073634;28;20307;-63
2021/11/19 06:39:58;;;;;;;13.73;12.23;;;13.80;99.90;;;;;;5075788;28;20573;-63
2021/11/19 06:42:25;;;;;;;14.82;12.52;;;13.90;99.90;;;;;;5075424;28;20466;-63
2021/11/19 06:44:54;;;;;;;14.02;12.52;;;13.90;99.90;;;;;;5075921;28;20574;-63
2021/11/19 06:47:21;;;;;;;17.20;13.90;;;13.90;99.90;;;;;;5075245;28;20228;-63
2021/11/19 06:49:47;;;;;;;17.10;14.53;;;13.90;99.90;;;;;;5075388;28;20232;-63
2021/11/19 06:52:14;;;;;;;13.97;12.47;;;13.90;99.90;;;;;;5075852;28;20943;-63
2021/11/19 06:54:42;;;;;;;16.85;14.75;;;13.90;99.90;;;;;;5075136;28;20479;-63
2021/11/19 06:57:10;;;;;;;14.73;12.20;;;13.90;99.90;;;;;;5075499;28;20234;-63
2021/11/19 06:59:39;;;;;;;17.00;14.90;;;14.00;99.90;;;;;;5075148;28;20478;-63
2021/11/19 07:02:09;;;;;;;16.40;14.80;;;14.00;99.90;;;;;;5075540;28;20473;-63
2021/11/19 07:04:37;;;;;;;20.50;17.50;;;14.00;99.90;;;;;;5075023;28;20462;-63
2021/11/19 07:07:07;;;;;;;16.65;14.95;;;14.00;99.90;;;;;;5075513;28;20586;-63
2021/11/19 07:09:34;;;;;;;16.48;14.70;;;14.00;99.90;;;;;;5074813;28;20569;-63
2021/11/19 07:12:01;;;;;;;15.75;13.57;;;14.00;99.90;;;;;;5075227;28;20220;-63
2021/11/19 07:14:28;;;;;;;14.38;12.70;;;14.00;99.90;;;;;;5074957;28;20223;-63
2021/11/19 07:16:55;;;;;;;15.80;14.20;;;14.00;99.90;;;;;;5075192;28;20562;-63
2021/11/19 07:19:24;;;;;;;12.43;11.30;;;13.90;99.90;;;;;;5074646;28;20470;-63
2021/11/19 07:21:53;;;;;;;12.07;10.88;;;14.00;99.90;;;;;;5074948;28;20497;-64
2021/11/19 07:24:21;;;;;;;13.43;11.93;;;14.00;99.90;;;;;;5075129;28;20273;-63
2021/11/19 07:26:48;;;;;;;13.23;11.13;;;14.00;99.90;;;;;;5074875;28;21868;-64
2021/11/19 07:29:15;;;;;;;14.77;12.98;;;13.90;99.90;;;;;;5074996;28;20635;-63
2021/11/19 07:31:42;;;;;;;12.65;10.98;;;13.90;99.90;;;;;;5074203;28;20231;-63
2021/11/19 07:34:09;;;;;;;13.25;11.80;;;14.00;99.90;;;;;;5074932;28;20224;-64
2021/11/19 07:36:38;;;;;;;13.65;12.23;;;14.00;99.90;;;;;;5074340;28;20239;-62
2021/11/19 07:39:06;;;;;;;12.17;10.87;;;14.00;99.90;;;;;;5074609;28;20224;-62
2021/11/19 07:41:34;;;;;;;11.20;10.10;;;14.00;99.90;;;;;;5074332;28;20498;-63
2021/11/19 07:44:01;;;;;;;13.98;11.15;;;14.00;99.90;;;;;;5074759;28;20220;-64
2021/11/19 07:46:29;;;;;;;12.35;11.15;;;14.00;99.90;;;;;;5074050;28;20220;-63
2021/11/19 07:48:58;;;;;;;12.40;11.10;;;14.00;99.90;;;;;;5074066;28;20658;-62
2021/11/19 07:51:29;;;;;;;11.50;10.10;;;14.00;99.90;;;;;;5074194;28;20466;-63
2021/11/19 07:53:58;;;;;;;11.37;10.03;;;14.00;99.90;;;;;;5074381;28;20216;-63
2021/11/19 07:56:30;;;;;;;11.53;10.33;;;14.00;99.90;;;;;;5074203;28;20956;-63
2021/11/19 07:58:59;;;;;;;11.60;10.50;;;14.00;99.90;;;;;;5074378;28;20490;-63
2021/11/19 08:01:26;;;;;;;11.80;10.60;;;14.00;99.90;;;;;;5074133;28;20485;-64
2021/11/19 08:03:53;;;;;;;10.50;9.40;;;14.00;99.90;;;;;;5074210;28;20227;-64
2021/11/19 08:06:23;;;;;;;13.07;11.37;;;14.00;99.90;;;;;;5074146;28;20462;-61
2021/11/19 08:08:50;;;;;;;12.07;10.97;;;14.00;99.90;;;;;;5073758;28;20470;-64
2021/11/19 08:11:18;;;;;;;11.13;10.03;;;14.00;99.90;;;;;;5074108;28;20462;-63
2021/11/19 08:13:45;;;;;;;11.80;10.60;;;14.00;99.90;;;;;;5073826;28;20466;-64
2021/11/19 08:16:13;;;;;;;10.75;9.75;;;14.10;99.90;;;;;;5074029;28;20474;-63
2021/11/19 08:18:46;;;;;;;9.17;8.27;;;14.10;99.90;;;;;;5073532;28;20228;-63
2021/11/19 08:21:13;;;;;;;10.70;9.70;;;14.10;99.90;;;;;;5073878;28;20469;-63
2021/11/19 08:23:43;;;;;;;11.43;10.33;;;14.10;99.90;;;;;;5073373;28;20477;-63
2021/11/19 08:26:14;;;;;;;12.60;11.27;;;14.20;99.90;;;;;;5073783;28;20477;-63
2021/11/19 08:28:43;;;;;;;12.73;11.43;;;14.20;99.90;;;;;;5073494;28;20982;-63
2021/11/19 08:31:18;;;;;;;12.38;11.13;;;14.20;99.90;;;;;;5073839;28;20501;-63
2021/11/19 08:33:45;;;;;;;10.97;9.90;;;14.30;99.90;;;;;;5073080;28;20231;-63
2021/11/19 08:36:13;;;;;;;10.97;9.83;;;14.30;99.90;;;;;;5073479;28;20466;-63
2021/11/19 08:38:42;;;;;;;12.00;10.80;;;14.30;99.90;;;;;;5073316;28;20473;-63
2021/11/19 08:41:10;;;;;;;11.93;10.60;;;14.30;99.90;;;;;;5073483;28;20474;-63
2021/11/19 08:43:40;;;;;;;12.70;10.77;;;14.30;99.90;;;;;;5073045;28;20778;-64
2021/11/19 08:46:11;;;;;;;10.70;9.60;;;14.30;99.90;;;;;;5073455;28;20477;-64
2021/11/19 08:48:40;;;;;;;12.77;10.40;;;14.30;99.90;;;;;;5072867;28;20470;-62
2021/11/19 08:51:13;;;;;;;9.23;8.33;;;14.40;99.90;;;;;;5073235;28;20470;-63
2021/11/19 08:53:41;;;;;;;11.90;10.70;;;14.40;99.90;;;;;;5072908;28;20477;-63
2021/11/19 08:56:08;;;;;;;13.73;11.00;;;14.40;99.90;;;;;;5073278;28;20462;-62
2021/11/19 08:58:41;;;;;;;11.53;10.40;;;14.40;99.90;;;;;;5072699;28;20470;-62
2021/11/19 09:01:12;;;;;;;13.50;12.30;;;14.40;99.90;;;;;;5072231;28;20800;-63
2021/11/19 09:03:39;;;;;;;13.10;11.80;;;14.40;99.90;;;;;;5072662;28;20466;-63
2021/11/19 09:06:10;;;;;;;13.47;12.17;;;14.40;99.90;;;;;;5072864;28;20536;-62
2021/11/19 09:08:39;;;;;;;13.43;11.00;;;14.40;99.90;;;;;;5072563;28;20485;-62
2021/11/19 09:11:08;;;;;;;12.93;11.63;;;14.40;99.90;;;;;;5073051;28;20481;-64
2021/11/19 09:13:35;;;;;;;13.50;11.48;;;14.40;99.90;;;;;;5072539;28;20466;-63
2021/11/19 09:16:06;;;;;;;13.00;10.93;;;14.40;99.90;;;;;;5072850;28;20708;-63
2021/11/19 09:18:57;;;;;;;15.67;12.30;;;14.40;99.90;;;;;;5072593;28;20489;-63
2021/11/19 09:21:28;;;;;;;11.40;9.27;;;14.30;99.90;;;;;;5072911;28;20480;-63
2021/11/19 09:24:00;;;;;;;12.47;10.73;;;14.30;99.90;;;;;;5072454;28;20454;-63
2021/11/19 09:26:36;;;;;;;13.43;11.03;;;14.30;99.90;;;;;;5072644;28;20466;-62
2021/11/19 09:29:07;;;;;;;13.50;11.47;;;14.40;99.90;;;;;;5072284;28;20465;-63
2021/11/19 09:31:36;;;;;;;12.73;11.33;;;14.30;99.90;;;;;;5072776;28;20462;-62
2021/11/19 09:34:06;;;;;;;15.70;12.43;;;14.40;99.90;;;;;;5072204;28;20461;-63
2021/11/19 09:36:33;;;;;;;15.53;13.73;;;14.30;99.90;;;;;;5072661;28;20494;-63
2021/11/19 09:39:00;;;;;;;17.93;14.20;;;14.30;99.90;;;;;;5072193;28;20462;-62
2021/11/19 09:41:44;;;;;;;14.03;12.57;;;14.30;99.90;;;;;;5072557;28;20462;-63
2021/11/19 09:44:41;;;;;;;16.07;13.83;;;14.30;99.90;;;;;;5072219;28;21363;-63
2021/11/19 09:47:49;;;;;;;15.10;13.53;;;14.40;99.90;;;;;;5072187;28;20469;-64
2021/11/19 09:50:52;;;;;;;15.47;13.50;;;14.30;99.90;;;;;;5060858;28;20454;-64
2021/11/19 09:54:04;;;;;;;14.90;12.63;;;14.30;99.90;;;;;;5072230;28;20951;-64
2021/11/19 09:57:03;;;;;;;13.47;12.07;;;14.30;99.90;;;;;;5072857;28;20464;-63
2021/11/19 09:59:36;;;;;;;13.60;12.05;;;14.40;99.90;;;;;;5047760;28;20473;-62
2021/11/19 10:02:29;;;;;;;14.27;12.77;;;14.40;99.90;;;;;;5072716;28;20660;-62
2021/11/19 10:05:23;;;;;;;14.53;13.10;;;14.40;99.90;;;;;;5072546;28;20550;-63
2021/11/19 10:08:02;;;;;;;16.13;13.73;;;14.50;99.90;;;;;;5072159;28;20466;-62
2021/11/19 10:10:52;;;;;;;15.40;12.13;;;14.50;99.90;;;;;;5072325;28;20477;-63
2021/11/19 10:13:43;;;;;;;17.20;14.23;;;14.50;99.90;;;;;;5075765;28;20539;-62
2021/11/19 10:16:22;;;;;;;14.17;12.57;;;14.50;99.90;;;;;;5076305;28;20800;-62
2021/11/19 10:18:56;;;;;;;14.53;11.93;;;14.50;99.90;;;;;;5075672;28;21231;-62
2021/11/19 10:21:26;;;;;;;14.87;13.47;;;14.50;99.90;;;;;;5076162;28;20477;-62
2021/11/19 10:23:58;;;;;;;18.97;13.80;;;14.60;99.90;;;;;;5075985;28;21218;-62
2021/11/19 10:26:30;;;;;;;15.70;12.70;;;14.50;99.90;;;;;;5075945;28;20535;-62
2021/11/19 10:29:03;;;;;;;18.13;12.90;;;14.60;99.90;;;;;;5075674;28;20539;-62
2021/11/19 10:31:30;;;;;;;14.80;12.70;;;14.60;99.90;;;;;;5076031;28;20473;-63
2021/11/19 10:34:08;;;;;;;18.47;13.20;;;14.60;99.90;;;;;;5075437;28;20472;-63
2021/11/19 10:36:40;;;;;;;18.70;14.73;;;14.60;99.90;;;;;;5075714;28;20829;-62
2021/11/19 10:39:35;;;;;;;16.83;14.03;;;14.60;99.90;;;;;;5076002;28;20470;-62
2021/11/19 10:42:21;;;;;;;17.87;14.30;;;14.60;99.90;;;;;;5075847;28;20477;-63
2021/11/19 10:45:31;;;;;;;15.27;12.70;;;14.60;99.90;;;;;;5075469;28;20458;-63
2021/11/19 10:48:24;;;;;;;12.90;10.67;;;14.60;99.90;;;;;;5036970;28;20970;-63
2021/11/19 10:51:33;;;;;;;15.53;10.90;;;14.60;99.90;;;;;;5074967;28;20511;-63
2021/11/19 10:54:30;;;;;;;13.03;11.63;;;14.60;99.90;;;;;;5075280;28;20850;-63
2021/11/19 10:57:05;;;;;;;13.47;12.07;;;14.60;99.90;;;;;;5075106;28;20465;-63
2021/11/19 10:59:39;;;;;;;13.47;11.80;;;14.60;99.90;;;;;;5075399;28;20478;-63
2021/11/19 11:02:31;;;;;;;14.07;12.37;;;14.50;99.90;;;;;;5075335;28;21229;-64
2021/11/19 11:05:01;;;;;;;14.03;12.60;;;14.60;99.90;;;;;;5075049;28;20808;-63
2021/11/19 11:07:31;;;;;;;13.87;12.43;;;14.60;99.90;;;;;;5075269;28;20466;-63
2021/11/19 11:10:06;;;;;;;17.17;15.33;;;14.60;99.90;;;;;;5074788;28;20474;-63
2021/11/19 11:12:45;;;;;;;16.27;13.63;;;14.60;99.90;;;;;;5075465;28;20489;-63
2021/11/19 11:15:26;;;;;;;20.90;18.70;;;14.60;99.90;;;;;;5075089;28;20458;-64
2021/11/19 11:18:05;;;;;;;18.77;16.87;;;14.60;99.90;;;;;;5074971;28;20991;-63
2021/11/19 11:20:35;;;;;;;16.47;12.90;;;14.60;99.90;;;;;;5074922;28;20474;-63
2021/11/19 11:23:15;;;;;;;13.67;12.10;;;14.60;99.90;;;;;;5074140;28;20507;-64
2021/11/19 11:25:43;;;;;;;11.70;10.50;;;14.70;99.90;;;;;;5074991;28;20477;-64
2021/11/19 11:28:13;;;;;;;13.23;10.80;;;14.70;99.90;;;;;;5074633;28;20947;-64
2021/11/19 11:30:52;;;;;;;15.23;13.10;;;14.70;99.90;;;;;;5074823;28;20482;-63
2021/11/19 11:33:22;;;;;;;13.13;10.00;;;14.70;99.90;;;;;;5074479;28;20493;-63
2021/11/19 11:35:52;;;;;;;12.50;9.93;;;14.80;99.90;;;;;;5074807;28;20470;-63
2021/11/19 11:38:28;;;;;;;14.17;12.23;;;14.70;99.90;;;;;;5074473;28;20546;-63
2021/11/19 11:41:13;;;;;;;14.90;11.93;;;14.80;99.90;;;;;;5074239;28;20470;-63
2021/11/19 11:43:42;;;;;;;15.87;11.77;;;14.80;99.90;;;;;;5074716;28;20792;-64
2021/11/19 11:46:27;;;;;;;13.07;11.67;;;14.80;99.90;;;;;;5074192;28;20466;-64
2021/11/19 11:49:13;;;;;;;13.23;11.63;;;14.80;99.90;;;;;;5074737;28;20462;-64
2021/11/19 11:51:51;;;;;;;14.53;12.50;;;14.80;99.90;;;;;;5074514;28;20490;-64
2021/11/19 11:54:26;;;;;;;13.70;11.60;;;14.80;99.90;;;;;;5074667;28;20466;-64
2021/11/19 11:57:30;;;;;;;14.63;9.90;;;14.80;99.90;;;;;;5074073;28;20462;-63
2021/11/19 12:00:01;;;;;;;14.60;12.17;;;14.70;99.90;;;;;;5073901;28;20466;-63
2021/11/19 12:02:39;;;;;;;12.73;11.30;;;14.70;99.90;;;;;;5074443;28;20470;-64
2021/11/19 12:05:27;;;;;;;16.60;11.80;;;14.70;99.90;;;;;;5074196;28;21057;-63
2021/11/19 12:08:00;;;;;;;14.00;12.07;;;14.70;99.90;;;;;;5074002;28;20850;-63
2021/11/19 12:10:39;;;;;;;12.90;11.07;;;14.70;99.90;;;;;;5074159;28;20470;-64
2021/11/19 12:13:17;;;;;;;11.90;9.97;;;14.70;99.90;;;;;;5073716;28;20469;-63
2021/11/19 12:15:52;;;;;;;13.30;9.50;;;14.70;99.90;;;;;;5073691;28;20466;-63
2021/11/19 12:18:27;;;;;;;10.83;9.80;;;14.70;99.90;;;;;;5074221;28;20523;-63
2021/11/19 12:21:05;;;;;;;8.93;8.03;;;14.70;99.90;;;;;;5073529;28;20470;-63
2021/11/19 12:23:43;;;;;;;13.23;9.83;;;14.70;99.90;;;;;;5074011;28;20473;-63
2021/11/19 12:26:33;;;;;;;12.97;10.40;;;14.70;99.90;;;;;;5071863;28;20451;-62
2021/11/19 12:29:22;;;;;;;8.63;7.73;;;14.70;99.90;;;;;;5071543;28;20458;-63
2021/11/19 12:31:54;;;;;;;11.50;9.40;;;14.70;99.90;;;;;;5071358;28;20497;-63
2021/11/19 12:34:26;;;;;;;7.67;6.73;;;14.70;99.90;;;;;;5054096;28;20470;-63
2021/11/19 12:37:07;;;;;;;9.00;7.53;;;14.60;99.90;;;;;;5051486;28;20459;-64
2021/11/19 12:39:37;;;;;;;9.37;7.73;;;14.60;99.90;;;;;;5052173;28;20470;-63
2021/11/19 12:42:13;;;;;;;11.10;7.60;;;14.60;99.90;;;;;;5053340;28;20454;-62
2021/11/19 12:45:12;;;;;;;8.93;8.03;;;14.60;99.90;;;;;;5053390;28;20467;-63
2021/11/19 12:48:12;;;;;;;10.73;8.80;;;14.60;99.90;;;;;;5053435;28;20973;-63
2021/11/19 12:50:41;;;;;;;10.07;7.70;;;14.60;99.90;;;;;;5027919;28;20964;-63
2021/11/19 12:53:31;;;;;;;7.60;6.80;;;14.60;99.90;;;;;;5053431;28;20987;-63